PCM876 KOXR-KBUR
Flight info
| Callsign | PCM876 |
|---|---|
| Flight time | 0h 19m |
| Altitude | 5000 |
| Route | TOAKS |
| Aircraft | C208/L-SDF/C |
Departure
| Time | 2026-04-28 16:51 |
|---|---|
| Airport | Oxnard Airport (KOXR) |
Arrival
| Time | 2026-04-28 17:10 |
|---|---|
| Airport | Hollywood Burbank/Bob Hope Airport (KBUR) |
| Time | Latitude | Longitude | Altitude | Speed | Heading |
|---|---|---|---|---|---|
| 2026-04-28 16:49 | 34.20079 | -119.20492 | 49 ft | 0 kts | 251° |
| 2026-04-28 16:50 | 34.20079 | -119.20527 | 50 ft | 19 kts | 269° |
| 2026-04-28 16:50 | 34.20082 | -119.20946 | 43 ft | 79 kts | 270° |
| 2026-04-28 16:50 | 34.20080 | -119.21739 | 194 ft | 99 kts | 267° |
| 2026-04-28 16:51 | 34.20005 | -119.22633 | 395 ft | 112 kts | 262° |
| 2026-04-28 16:51 | 34.19841 | -119.23520 | 806 ft | 108 kts | 239° |
| 2026-04-28 16:51 | 34.19190 | -119.23824 | 1184 ft | 108 kts | 159° |
| 2026-04-28 16:51 | 34.18802 | -119.23136 | 1565 ft | 104 kts | 87° |
| 2026-04-28 16:52 | 34.18805 | -119.22255 | 1930 ft | 106 kts | 90° |
| 2026-04-28 16:52 | 34.18793 | -119.21366 | 2313 ft | 106 kts | 89° |
| 2026-04-28 16:52 | 34.18791 | -119.20476 | 2688 ft | 106 kts | 89° |
| 2026-04-28 16:52 | 34.18797 | -119.19588 | 3036 ft | 106 kts | 89° |
| 2026-04-28 16:53 | 34.18812 | -119.18695 | 3382 ft | 107 kts | 88° |
| 2026-04-28 16:53 | 34.18828 | -119.17794 | 3731 ft | 107 kts | 89° |
| 2026-04-28 16:53 | 34.18843 | -119.16892 | 4066 ft | 108 kts | 88° |
| 2026-04-28 16:53 | 34.18884 | -119.15983 | 4416 ft | 109 kts | 85° |
| 2026-04-28 16:54 | 34.18929 | -119.15069 | 4761 ft | 109 kts | 86° |
| 2026-04-28 16:54 | 34.18967 | -119.14140 | 5003 ft | 120 kts | 86° |
| 2026-04-28 16:54 | 34.19011 | -119.13047 | 5015 ft | 138 kts | 87° |
| 2026-04-28 16:54 | 34.19041 | -119.12256 | 5017 ft | 146 kts | 86° |
| 2026-04-28 16:55 | 34.19106 | -119.10555 | 5013 ft | 155 kts | 86° |
| 2026-04-28 16:55 | 34.19153 | -119.09240 | 5011 ft | 158 kts | 87° |
| 2026-04-28 16:55 | 34.19204 | -119.07910 | 5010 ft | 159 kts | 87° |
| 2026-04-28 16:55 | 34.19255 | -119.06577 | 5011 ft | 159 kts | 87° |
| 2026-04-28 16:56 | 34.19304 | -119.05243 | 5007 ft | 160 kts | 87° |
| 2026-04-28 16:56 | 34.19354 | -119.03903 | 5010 ft | 160 kts | 87° |
| 2026-04-28 16:56 | 34.19404 | -119.02558 | 5011 ft | 160 kts | 87° |
| 2026-04-28 16:56 | 34.19454 | -119.01213 | 5010 ft | 160 kts | 87° |
| 2026-04-28 16:57 | 34.19504 | -118.99867 | 5007 ft | 160 kts | 87° |
| 2026-04-28 16:57 | 34.19551 | -118.98544 | 5006 ft | 160 kts | 87° |
| 2026-04-28 16:57 | 34.19600 | -118.97207 | 5004 ft | 159 kts | 87° |
| 2026-04-28 16:57 | 34.19650 | -118.95868 | 5006 ft | 160 kts | 87° |
| 2026-04-28 16:58 | 34.19698 | -118.94520 | 5005 ft | 161 kts | 87° |
| 2026-04-28 16:58 | 34.19746 | -118.93174 | 5009 ft | 160 kts | 87° |
| 2026-04-28 16:58 | 34.19796 | -118.91827 | 5011 ft | 161 kts | 87° |
| 2026-04-28 16:58 | 34.19845 | -118.90479 | 5007 ft | 160 kts | 87° |
| 2026-04-28 16:59 | 34.19896 | -118.89109 | 4769 ft | 165 kts | 87° |
| 2026-04-28 16:59 | 34.19944 | -118.87724 | 4519 ft | 166 kts | 87° |
| 2026-04-28 16:59 | 34.19993 | -118.86333 | 4269 ft | 166 kts | 87° |
| 2026-04-28 16:59 | 34.20042 | -118.84946 | 4018 ft | 165 kts | 87° |
| 2026-04-28 17:00 | 34.20094 | -118.83563 | 3766 ft | 164 kts | 88° |
| 2026-04-28 17:00 | 34.20143 | -118.82189 | 3521 ft | 164 kts | 88° |
| 2026-04-28 17:00 | 34.20190 | -118.80806 | 3272 ft | 165 kts | 88° |
| 2026-04-28 17:00 | 34.20239 | -118.79422 | 3032 ft | 165 kts | 87° |
| 2026-04-28 17:01 | 34.20287 | -118.78077 | 2997 ft | 156 kts | 87° |
| 2026-04-28 17:01 | 34.20275 | -118.76788 | 2984 ft | 152 kts | 91° |
| 2026-04-28 17:01 | 34.20267 | -118.75522 | 2987 ft | 150 kts | 90° |
| 2026-04-28 17:01 | 34.20258 | -118.74265 | 2987 ft | 150 kts | 91° |
| 2026-04-28 17:02 | 34.20246 | -118.73012 | 2986 ft | 150 kts | 91° |
| 2026-04-28 17:02 | 34.20237 | -118.72165 | 2984 ft | 149 kts | 91° |
| 2026-04-28 17:02 | 34.20222 | -118.70512 | 2986 ft | 149 kts | 90° |
| 2026-04-28 17:02 | 34.20212 | -118.69261 | 2986 ft | 149 kts | 91° |
| 2026-04-28 17:03 | 34.20186 | -118.66797 | 2987 ft | 145 kts | 91° |
| 2026-04-28 17:03 | 34.20168 | -118.65576 | 2990 ft | 146 kts | 91° |
| 2026-04-28 17:03 | 34.20157 | -118.64349 | 2990 ft | 146 kts | 91° |
| 2026-04-28 17:04 | 34.20133 | -118.61909 | 2988 ft | 145 kts | 91° |
| 2026-04-28 17:04 | 34.20120 | -118.60686 | 2988 ft | 146 kts | 91° |
| 2026-04-28 17:05 | 34.20066 | -118.58231 | 2988 ft | 146 kts | 91° |
| 2026-04-28 17:05 | 34.20048 | -118.57000 | 2988 ft | 146 kts | 91° |
| 2026-04-28 17:05 | 34.20031 | -118.55773 | 2987 ft | 146 kts | 91° |
| 2026-04-28 17:06 | 34.19996 | -118.53335 | 2988 ft | 147 kts | 91° |
| 2026-04-28 17:06 | 34.19977 | -118.52085 | 2991 ft | 146 kts | 91° |
| 2026-04-28 17:06 | 34.19946 | -118.49713 | 2802 ft | 130 kts | 92° |
| 2026-04-28 17:07 | 34.19932 | -118.48665 | 2635 ft | 120 kts | 91° |
| 2026-04-28 17:07 | 34.19924 | -118.47721 | 2496 ft | 107 kts | 91° |
| 2026-04-28 17:07 | 34.19915 | -118.46837 | 2362 ft | 105 kts | 90° |
| 2026-04-28 17:07 | 34.19903 | -118.45930 | 2217 ft | 110 kts | 91° |
| 2026-04-28 17:08 | 34.19893 | -118.45000 | 2074 ft | 112 kts | 90° |
| 2026-04-28 17:08 | 34.19878 | -118.44042 | 1922 ft | 115 kts | 89° |
| 2026-04-28 17:08 | 34.19869 | -118.43079 | 1772 ft | 115 kts | 90° |
| 2026-04-28 17:08 | 34.19857 | -118.42117 | 1616 ft | 114 kts | 89° |
| 2026-04-28 17:09 | 34.19847 | -118.41157 | 1465 ft | 114 kts | 90° |
| 2026-04-28 17:09 | 34.19832 | -118.40211 | 1314 ft | 112 kts | 90° |
| 2026-04-28 17:09 | 34.19823 | -118.39338 | 1172 ft | 97 kts | 91° |
| 2026-04-28 17:09 | 34.19818 | -118.38512 | 1045 ft | 100 kts | 90° |
| 2026-04-28 17:10 | 34.19805 | -118.37665 | 901 ft | 102 kts | 90° |
| 2026-04-28 17:10 | 34.19792 | -118.36818 | 745 ft | 98 kts | 91° |
| 2026-04-28 17:10 | 34.19782 | -118.36071 | 707 ft | 78 kts | 91° |
| 2026-04-28 17:10 | 34.19715 | -118.35799 | 706 ft | 24 kts | 179° |
| 2026-04-28 17:11 | 34.19631 | -118.35879 | 703 ft | 24 kts | 285° |
| 2026-04-28 17:11 | 34.19609 | -118.35959 | 706 ft | 0 kts | 169° |